Time;durP1;ratioP1;P1;durP2;ratioP2;P2;SDS_P1;SDS_P2;PMS_P1;PMS_P2;Temp;Humidity;BMP_temperature;BMP_pressure;BME280_temperature;BME280_humidity;BME280_pressure;Samples;Min_cycle;Max_cycle;Signal;HPM_P1;HPM_P2
2022/02/05 00:05:46;;;;;;;35.95;20.23;;;;;;;4.99;91.70;99609.92;1679578;84;25979;-76
2022/02/05 00:11:12;;;;;;;38.48;20.50;;;;;;;4.98;91.46;99601.16;1678718;84;25848;-76
2022/02/05 00:16:13;;;;;;;32.88;19.23;;;;;;;4.98;91.35;99605.63;1677994;84;26600;-75
2022/02/05 00:40:44;;;;;;;37.45;19.45;;;;;;;4.93;90.93;99578.29;1676822;84;25847;-76
2022/02/05 00:42:43;;;;;;;37.88;19.92;;;;;;;4.94;91.07;99579.92;1673126;84;25973;-77
2022/02/05 00:45:11;;;;;;;33.85;18.77;;;;;;;4.93;90.92;99576.97;1671911;84;25819;-76
2022/02/05 00:47:43;;;;;;;33.90;19.65;;;;;;;4.94;91.05;99569.84;1662310;84;27448;-76
2022/02/05 00:50:15;;;;;;;36.10;19.27;;;;;;;4.93;90.60;99571.66;1655067;85;26104;-76
2022/02/05 00:52:37;;;;;;;36.45;20.48;;;;;;;4.92;90.69;99566.02;1658284;85;26280;-77
2022/02/05 00:55:09;;;;;;;38.38;21.52;;;;;;;4.93;90.79;99566.35;1657927;85;26496;-76
2022/02/05 00:57:44;;;;;;;30.32;19.57;;;;;;;4.95;90.78;99563.52;1658327;85;26532;-76
2022/02/05 01:00:00;;;;;;;33.75;17.75;;;;;;;4.93;90.67;99567.68;1656319;85;27629;-76
2022/02/05 01:02:26;;;;;;;37.63;19.82;;;;;;;4.94;90.76;99557.90;1659341;85;26008;-76
2022/02/05 01:04:53;;;;;;;37.08;20.55;;;;;;;4.95;90.68;99564.34;1656224;83;25819;-76
2022/02/05 01:07:19;;;;;;;35.40;18.32;;;;;;;4.94;90.66;99561.35;1657484;85;25923;-76
2022/02/05 01:09:48;;;;;;;33.28;18.95;;;;;;;4.95;90.54;99556.39;1658699;85;26120;-76
2022/02/05 01:12:13;;;;;;;34.63;18.75;;;;;;;4.95;90.62;99553.73;1656290;85;27441;-76
2022/02/05 01:14:49;;;;;;;34.03;19.10;;;;;;;4.96;90.60;99551.91;1657708;85;25847;-75
2022/02/05 01:17:12;;;;;;;;;;;;;;;4.96;90.63;99547.93;1660659;85;25514;-76
2022/02/05 01:20:03;;;;;;;35.50;18.80;;;;;;;4.96;90.70;99539.45;1657354;85;26041;-77
2022/02/05 01:22:09;;;;;;;32.15;18.17;;;;;;;4.95;90.80;99537.81;1658195;85;26562;-75
2022/02/05 01:24:36;;;;;;;33.95;19.40;;;;;;;4.96;90.84;99534.14;1656394;85;27484;-76
2022/02/05 01:27:08;;;;;;;33.55;18.85;;;;;;;4.97;90.75;99527.84;1657152;85;25961;-76
2022/02/05 01:29:47;;;;;;;31.97;18.02;;;;;;;4.99;90.77;99531.14;1658325;84;26087;-76
2022/02/05 01:32:04;;;;;;;33.55;18.30;;;;;;;5.00;90.62;99531.98;1654990;85;25840;-76
2022/02/05 01:35:34;;;;;;;32.20;16.77;;;;;;;5.01;90.54;99529.63;1659220;85;25807;-76
2022/02/05 01:54:18;;;;;;;30.43;17.20;;;;;;;5.00;90.62;99478.90;1676748;84;25299;-77
2022/02/05 02:12:05;;;;;;;30.32;16.62;;;;;;;4.97;90.41;99458.02;1679350;84;25864;-76
2022/02/05 02:19:45;;;;;;;31.17;15.85;;;;;;;4.99;90.17;99453.35;1677814;84;26662;-76
2022/02/05 02:22:08;;;;;;;27.87;17.10;;;;;;;5.00;90.23;99457.67;1679036;84;25760;-76
2022/02/05 02:29:57;;;;;;;25.35;15.13;;;;;;;5.01;90.02;99459.30;1678555;84;27532;-77
2022/02/05 02:32:10;;;;;;;24.65;14.80;;;;;;;5.01;89.73;99460.63;1673113;84;25884;-76
2022/02/05 02:34:42;;;;;;;26.95;14.95;;;;;;;5.02;89.80;99458.31;1675089;84;25983;-76
2022/02/05 02:37:10;;;;;;;31.20;16.17;;;;;;;5.03;89.87;99456.80;1678551;84;25774;-76
2022/02/05 02:39:54;;;;;;;30.65;16.45;;;;;;;5.03;90.08;99445.35;1678499;84;25989;-77
2022/02/05 02:42:10;;;;;;;26.48;14.20;;;;;;;5.03;90.18;99446.19;1676576;84;28571;-76
2022/02/05 02:44:33;;;;;;;25.95;14.50;;;;;;;5.03;90.28;99442.70;1674205;84;25944;-76
2022/02/05 02:46:59;;;;;;;22.82;13.88;;;;;;;5.02;90.29;99435.76;1672587;84;25837;-76
2022/02/05 02:49:51;;;;;;;26.10;13.68;;;;;;;5.02;90.47;99427.30;1672228;84;25782;-76
2022/02/05 02:57:41;;;;;;;19.67;11.57;;;;;;;5.04;90.46;99423.13;1677386;84;26635;-77
2022/02/05 03:00:12;;;;;;;19.25;11.05;;;;;;;5.07;90.78;99430.22;1678069;84;26515;-76
2022/02/05 03:02:37;;;;;;;20.20;11.80;;;;;;;5.07;90.82;99424.11;1680060;84;26441;-76
2022/02/05 03:05:04;;;;;;;17.73;11.43;;;;;;;5.08;91.15;99429.73;1678603;84;25850;-77
2022/02/05 03:07:31;;;;;;;19.17;11.90;;;;;;;5.10;91.18;99429.87;1679468;84;27446;-76
2022/02/05 03:09:57;;;;;;;16.60;10.70;;;;;;;5.10;91.15;99419.26;1678596;84;25931;-77
2022/02/05 03:12:24;;;;;;;19.73;11.53;;;;;;;5.12;91.19;99420.39;1677861;84;25805;-77
2022/02/05 03:14:51;;;;;;;19.87;11.20;;;;;;;5.13;91.22;99424.19;1677885;84;26535;-77
2022/02/05 03:17:23;;;;;;;19.05;11.57;;;;;;;5.12;91.15;99416.41;1679422;84;25808;-77
2022/02/05 03:19:51;;;;;;;20.10;11.25;;;;;;;5.13;91.17;99412.77;1679162;84;28248;-76
2022/02/05 03:22:21;;;;;;;17.77;10.53;;;;;;;5.12;91.18;99411.11;1673971;84;25773;-76
2022/02/05 03:24:48;;;;;;;20.20;10.48;;;;;;;5.14;91.31;99412.58;1679258;84;26606;-76
2022/02/05 03:27:17;;;;;;;14.43;10.08;;;;;;;5.15;91.21;99418.22;1677710;84;25805;-77
2022/02/05 03:29:48;;;;;;;16.67;10.05;;;;;;;5.16;91.20;99417.70;1678813;84;25783;-76
2022/02/05 03:32:16;;;;;;;17.05;10.55;;;;;;;5.14;91.18;99412.58;1679797;84;27871;-76
2022/02/05 03:34:43;;;;;;;16.40;10.30;;;;;;;5.16;91.21;99400.45;1634941;87;26291;-76
2022/02/05 03:37:09;;;;;;;16.90;10.13;;;;;;;5.17;91.18;99408.25;1631300;87;25842;-76
2022/02/05 03:39:35;;;;;;;16.55;10.32;;;;;;;5.16;91.15;99406.59;1631226;87;25908;-77
2022/02/05 03:42:03;;;;;;;18.48;10.38;;;;;;;5.17;91.15;99397.63;1629787;87;25341;-76
2022/02/05 03:44:30;;;;;;;14.45;8.38;;;;;;;5.17;90.92;99394.14;1671519;84;28390;-76
2022/02/05 03:46:56;;;;;;;15.78;9.63;;;;;;;5.16;90.64;99392.48;1649838;85;25872;-77
2022/02/05 03:49:23;;;;;;;13.50;8.93;;;;;;;5.13;90.81;99400.30;1599830;88;25852;-76
2022/02/05 03:51:50;;;;;;;16.48;9.65;;;;;;;5.14;90.95;99406.44;1647577;86;25995;-76
2022/02/05 03:54:19;;;;;;;11.95;8.58;;;;;;;5.13;91.28;99403.48;1647467;86;25915;-76
2022/02/05 03:56:47;;;;;;;14.75;8.70;;;;;;;5.15;91.44;99402.80;1647657;86;28288;-77
2022/02/05 03:59:13;;;;;;;11.57;7.28;;;;;;;5.16;91.53;99395.14;1647441;86;25853;-75
2022/02/05 04:01:39;;;;;;;14.68;8.28;;;;;;;5.17;91.65;99391.49;1647749;86;26378;-77
2022/02/05 04:04:06;;;;;;;11.43;7.58;;;;;;;5.17;91.69;99394.14;1647552;86;25824;-76
2022/02/05 04:06:32;;;;;;;14.98;8.10;;;;;;;5.18;91.69;99397.10;1647535;86;25986;-77
2022/02/05 04:09:04;;;;;;;10.45;7.62;;;;;;;5.21;91.73;99396.75;1647653;86;27460;-77
2022/02/05 04:11:38;;;;;;;12.50;6.78;;;;;;;5.24;91.80;99395.05;1647218;86;26149;-76
2022/02/05 04:16:47;;;;;;;7.97;5.03;;;;;;;5.33;91.43;99408.06;1646116;86;26624;-77
2022/02/05 04:19:18;;;;;;;8.80;5.12;;;;;;;5.40;91.04;99406.84;1647396;86;25912;-76
2022/02/05 04:21:45;;;;;;;5.05;3.50;;;;;;;5.48;90.97;99408.07;1647617;86;33255;-77
2022/02/05 04:24:11;;;;;;;7.37;2.87;;;;;;;5.53;90.16;99416.81;1647889;86;26538;-76
2022/02/05 04:26:38;;;;;;;2.45;2.12;;;;;;;5.61;87.65;99432.66;1647074;86;25768;-77
2022/02/05 04:29:11;;;;;;;4.10;2.10;;;;;;;5.64;86.17;99430.48;1647662;86;25828;-76
2022/02/05 04:31:39;;;;;;;1.37;1.27;;;;;;;5.63;87.92;99454.05;1640664;86;25744;-77
2022/02/05 04:34:06;;;;;;;1.00;0.88;;;;;;;5.52;86.02;99443.88;1647542;86;27518;-76
2022/02/05 04:36:35;;;;;;;1.87;0.90;;;;;;;5.38;84.85;99467.27;1647469;86;26521;-76
2022/02/05 04:39:09;;;;;;;0.53;0.53;;;;;;;5.20;83.89;99478.71;1647705;86;26352;-75
2022/02/05 04:41:43;;;;;;;0.67;0.67;;;;;;;5.03;83.21;99482.51;1647324;86;26370;-76
2022/02/05 04:44:15;;;;;;;0.68;0.50;;;;;;;4.89;82.97;99515.14;1645536;86;25899;-77
2022/02/05 04:52:26;;;;;;;1.17;0.45;;;;;;;4.61;83.18;99505.54;1656936;85;25901;-76
2022/02/05 05:05:48;;;;;;;0.60;0.60;;;;;;;4.28;85.38;99589.70;1635470;85;26530;-77
2022/02/05 05:12:28;;;;;;;0.60;0.60;;;;;;;4.08;85.22;99619.42;1653527;85;27442;-76
2022/02/05 05:20:19;;;;;;;1.50;0.70;;;;;;;3.95;85.29;99661.50;1659215;85;25855;-76
2022/02/05 05:22:45;;;;;;;1.02;0.90;;;;;;;3.90;85.17;99667.30;1658797;85;26470;-76
2022/02/05 05:25:11;;;;;;;1.47;1.00;;;;;;;3.87;85.54;99680.37;1657746;85;27442;-76
2022/02/05 05:27:38;;;;;;;1.45;1.12;;;;;;;3.86;85.87;99693.31;1655954;85;26586;-77
2022/02/05 05:30:07;;;;;;;2.37;1.25;;;;;;;3.86;85.86;99700.42;1658825;85;25754;-76
2022/02/05 05:32:34;;;;;;;1.20;1.10;;;;;;;3.83;86.28;99708.69;1658392;85;25816;-77
2022/02/05 05:35:00;;;;;;;2.35;0.90;;;;;;;3.80;86.04;99704.57;1656498;85;26065;-76
2022/02/05 05:37:26;;;;;;;1.17;1.00;;;;;;;3.78;86.04;99713.19;1658449;85;26837;-76
2022/02/05 05:39:53;;;;;;;1.70;1.10;;;;;;;3.76;85.96;99720.44;1658271;85;26074;-76
2022/02/05 05:42:23;;;;;;;1.40;1.10;;;;;;;3.73;85.52;99743.78;1664913;84;25870;-76
2022/02/05 05:47:21;;;;;;;1.72;0.72;;;;;;;3.68;85.83;99740.30;1633111;86;25896;-76
2022/02/05 05:49:59;;;;;;;2.10;1.40;;;;;;;3.67;86.11;99751.90;1639352;86;28401;-76
2022/02/05 05:52:12;;;;;;;1.25;1.07;;;;;;;3.64;86.09;99763.30;1678022;84;25851;-77
2022/02/05 05:54:39;;;;;;;1.65;1.00;;;;;;;3.63;86.47;99763.81;1679729;84;25844;-77
2022/02/05 05:57:05;;;;;;;2.00;1.72;;;;;;;3.62;86.82;99771.41;1677541;84;26768;-76
2022/02/05 05:59:31;;;;;;;2.80;2.10;;;;;;;3.61;86.89;99775.06;1682195;84;25849;-76
2022/02/05 06:01:58;;;;;;;3.10;2.12;;;;;;;3.59;87.10;99785.48;1680589;84;27459;-77
2022/02/05 06:04:24;;;;;;;3.55;2.52;;;;;;;3.54;87.05;99775.37;1676467;84;25830;-76
2022/02/05 06:06:52;;;;;;;2.22;1.92;;;;;;;3.50;87.45;99775.36;1674083;84;25816;-76
2022/02/05 06:09:18;;;;;;;2.20;2.00;;;;;;;3.49;87.72;99782.13;1676356;84;26437;-77
2022/02/05 06:11:45;;;;;;;2.55;2.12;;;;;;;3.49;87.70;99797.52;1657758;85;25846;-77
2022/02/05 06:14:16;;;;;;;3.45;2.22;;;;;;;3.48;87.67;99795.05;1642819;86;27400;-77
2022/02/05 06:16:40;;;;;;;3.37;2.08;;;;;;;3.47;87.28;99798.17;1646540;86;25869;-76
2022/02/05 06:19:06;;;;;;;2.55;2.02;;;;;;;3.48;87.16;99813.58;1680015;84;25866;-76
2022/02/05 06:21:32;;;;;;;3.90;2.20;;;;;;;3.49;87.23;99823.16;1682426;84;25853;-76
2022/02/05 06:23:58;;;;;;;4.47;1.80;;;;;;;3.50;86.76;99820.38;1678165;83;25841;-77
2022/02/05 06:26:25;;;;;;;4.50;1.75;;;;;;;3.53;86.75;99828.50;1679154;84;27498;-76
2022/02/05 06:28:51;;;;;;;2.58;1.10;;;;;;;3.55;86.78;99832.61;1675888;84;26477;-77
2022/02/05 06:31:17;;;;;;;2.98;1.30;;;;;;;3.57;86.62;99833.28;1674040;84;26103;-76
2022/02/05 06:33:44;;;;;;;3.58;1.42;;;;;;;3.60;86.57;99848.86;1680577;84;26388;-76
2022/02/05 06:36:10;;;;;;;4.17;1.17;;;;;;;3.60;86.29;99859.94;1677890;84;25958;-76
2022/02/05 06:38:36;;;;;;;5.70;1.62;;;;;;;3.60;86.29;99863.42;1678423;84;27454;-77
2022/02/05 06:41:02;;;;;;;2.40;0.90;;;;;;;3.62;85.90;99864.58;1673436;84;25857;-76
2022/02/05 06:43:28;;;;;;;1.82;1.22;;;;;;;3.64;86.02;99874.52;1677880;84;25815;-75
2022/02/05 06:45:55;;;;;;;2.42;1.25;;;;;;;3.63;85.43;99875.03;1672776;84;25759;-77
2022/02/05 06:48:21;;;;;;;2.60;1.35;;;;;;;3.64;85.57;99885.95;1669061;84;25845;-77
2022/02/05 06:50:47;;;;;;;5.03;1.95;;;;;;;3.64;85.61;99885.95;1673254;84;27444;-76
2022/02/05 06:53:14;;;;;;;6.45;2.15;;;;;;;3.67;85.46;99894.07;1673996;84;25845;-77
2022/02/05 06:55:40;;;;;;;5.65;1.95;;;;;;;3.66;85.14;99895.88;1674664;84;25735;-76
2022/02/05 06:58:07;;;;;;;3.65;1.40;;;;;;;3.67;84.13;99896.72;1677541;84;26546;-76
2022/02/05 07:00:33;;;;;;;6.83;1.57;;;;;;;3.67;84.47;99910.80;1676955;84;25880;-76
2022/02/05 07:03:00;;;;;;;2.25;1.10;;;;;;;3.68;84.11;99907.14;1668968;84;28284;-76
2022/02/05 07:05:26;;;;;;;5.58;1.40;;;;;;;3.69;84.46;99920.73;1681841;84;25776;-76
2022/02/05 07:07:53;;;;;;;6.78;1.65;;;;;;;3.69;83.91;99933.98;1668971;84;25885;-77
2022/02/05 07:10:19;;;;;;;4.87;1.20;;;;;;;3.68;83.54;99929.66;1671574;84;25978;-77
2022/02/05 07:13:06;;;;;;;3.40;1.50;;;;;;;3.67;83.52;99941.25;1650091;85;25922;-76
2022/02/05 07:15:26;;;;;;;2.30;1.12;;;;;;;3.69;83.62;99941.09;1621336;87;27562;-77
2022/02/05 07:18:10;;;;;;;8.08;1.32;;;;;;;3.71;83.50;99941.27;1672238;84;26271;-76
2022/02/05 07:20:37;;;;;;;3.70;1.65;;;;;;;3.73;83.66;99955.67;1672127;84;26453;-76
2022/02/05 07:31:03;;;;;;;5.20;1.57;;;;;;;3.73;83.36;99969.75;1675528;84;25995;-76
2022/02/05 07:33:29;;;;;;;7.78;1.77;;;;;;;3.75;83.94;99975.72;1676449;84;25752;-76
2022/02/05 07:35:56;;;;;;;5.17;2.10;;;;;;;3.76;83.41;99973.91;1675410;84;26686;-76
2022/02/05 07:38:22;;;;;;;4.45;1.35;;;;;;;3.77;83.69;99983.01;1677758;84;26588;-76
2022/02/05 07:40:50;;;;;;;5.55;1.40;;;;;;;3.78;83.78;99981.20;1680255;84;28327;-76
2022/02/05 07:43:16;;;;;;;5.90;1.32;;;;;;;3.80;83.49;99979.22;1671826;84;26017;-76
2022/02/05 07:45:43;;;;;;;7.35;1.90;;;;;;;3.81;83.64;99994.95;1671537;84;25990;-77
2022/02/05 07:48:09;;;;;;;4.55;1.67;;;;;;;3.82;83.38;99983.86;1673740;84;26547;-76
2022/02/05 07:50:35;;;;;;;9.98;2.37;;;;;;;3.80;83.24;99992.46;1663554;83;25815;-77
2022/02/05 07:53:01;;;;;;;7.03;2.83;;;;;;;3.80;83.12;99999.08;1648194;86;27477;-76
2022/02/05 07:55:27;;;;;;;3.58;1.55;;;;;;;3.80;83.51;100002.57;1660762;85;25866;-77
2022/02/05 07:57:54;;;;;;;5.75;1.85;;;;;;;3.84;83.46;100009.70;1660131;85;26557;-77
2022/02/05 08:00:20;;;;;;;9.28;3.45;;;;;;;3.87;83.77;100010.20;1662640;85;26528;-77
2022/02/05 08:02:46;;;;;;;12.63;5.30;;;;;;;3.91;83.43;100010.22;1667603;85;25987;-76
2022/02/05 08:05:12;;;;;;;7.25;3.33;;;;;;;3.95;83.39;100020.02;1639178;85;27709;-77
2022/02/05 08:07:39;;;;;;;5.25;2.72;;;;;;;3.96;82.61;100024.83;1618842;87;25921;-77
2022/02/05 08:10:08;;;;;;;9.20;8.23;;;;;;;3.97;82.81;100026.48;1664932;85;25843;-78
2022/02/05 08:12:38;;;;;;;6.65;3.80;;;;;;;3.98;83.06;100023.66;1665119;85;26473;-79
2022/02/05 08:15:03;;;;;;;6.70;2.62;;;;;;;4.00;83.19;100019.03;1658144;85;25751;-79
2022/02/05 08:17:32;;;;;;;7.00;3.45;;;;;;;4.03;83.25;100022.70;1656407;85;27697;-78
2022/02/05 08:19:57;;;;;;;5.45;1.95;;;;;;;4.06;83.19;100036.97;1656461;85;25918;-76
2022/02/05 08:22:24;;;;;;;8.23;2.58;;;;;;;4.07;82.52;100026.69;1660024;85;26466;-76
2022/02/05 08:24:50;;;;;;;5.30;2.42;;;;;;;4.07;83.06;100033.31;1658390;85;26455;-76
2022/02/05 08:27:17;;;;;;;7.05;2.30;;;;;;;4.10;82.71;100039.64;1658341;85;26391;-76
2022/02/05 08:29:59;;;;;;;11.25;4.03;;;;;;;4.11;82.55;100049.23;1656563;85;27464;-77
2022/02/05 08:32:27;;;;;;;4.85;2.50;;;;;;;4.13;82.78;100055.72;1637213;86;26311;-76
2022/02/05 08:34:57;;;;;;;6.40;2.25;;;;;;;4.13;82.60;100060.50;1642172;86;25794;-76
2022/02/05 08:37:23;;;;;;;9.83;3.17;;;;;;;4.12;82.54;100058.02;1656319;85;25781;-77
2022/02/05 08:39:49;;;;;;;8.58;2.98;;;;;;;4.09;82.83;100045.07;1639321;85;25838;-76
2022/02/05 08:42:16;;;;;;;9.60;3.08;;;;;;;4.08;82.73;100058.00;1624486;88;28281;-76
2022/02/05 08:44:42;;;;;;;10.45;2.62;;;;;;;4.08;83.35;100060.17;1629536;87;25904;-76
2022/02/05 08:47:08;;;;;;;10.50;2.77;;;;;;;4.10;83.18;100063.48;1631476;86;25371;-76
2022/02/05 08:49:35;;;;;;;8.00;2.65;;;;;;;4.10;83.20;100067.47;1630795;85;25786;-76
2022/02/05 08:52:05;;;;;;;5.85;2.80;;;;;;;4.11;83.36;100070.92;1627601;86;25862;-76
2022/02/05 08:54:31;;;;;;;11.57;2.98;;;;;;;4.13;83.20;100076.92;1629768;87;27562;-78
2022/02/05 08:56:58;;;;;;;9.83;2.80;;;;;;;4.13;83.21;100073.76;1624027;87;25824;-76
2022/02/05 08:59:27;;;;;;;9.75;3.17;;;;;;;4.12;82.60;100072.59;1635967;86;25825;-76
2022/02/05 09:01:59;;;;;;;10.35;2.67;;;;;;;4.11;82.86;100087.66;1615484;87;25891;-76
2022/02/05 09:04:49;;;;;;;9.53;3.20;;;;;;;4.11;82.68;100080.20;1616728;87;25834;-76
2022/02/05 09:07:01;;;;;;;9.83;4.08;;;;;;;4.09;82.74;100079.53;1616007;87;27478;-77
2022/02/05 09:12:16;;;;;;;16.80;5.20;;;;;;;4.13;83.12;100088.85;1639597;86;25536;-78
2022/02/05 09:16:53;;;;;;;6.58;3.00;;;;;;;4.18;82.91;100090.03;1629630;87;25899;-77
2022/02/05 09:19:19;;;;;;;7.42;3.10;;;;;;;4.21;81.82;100092.38;1629013;85;27440;-77
2022/02/05 09:21:46;;;;;;;8.83;3.17;;;;;;;4.21;81.83;100094.19;1629066;87;25915;-76
2022/02/05 09:24:12;;;;;;;12.93;4.22;;;;;;;4.24;82.23;100093.36;1630167;86;25769;-77
2022/02/05 09:26:46;;;;;;;16.65;7.90;;;;;;;4.26;81.73;100100.66;1629896;87;26152;-78
2022/02/05 09:29:19;;;;;;;8.85;4.05;;;;;;;4.26;82.02;100102.47;1630075;86;25810;-76
2022/02/05 09:31:39;;;;;;;26.85;8.73;;;;;;;4.27;81.61;100108.13;1638642;86;27540;-77
2022/02/05 09:34:06;;;;;;;27.52;10.65;;;;;;;4.30;82.13;100109.95;1613916;87;25896;-77
2022/02/05 09:36:34;;;;;;;36.65;18.35;;;;;;;4.32;82.13;100103.19;1616025;87;25949;-76
2022/02/05 09:39:01;;;;;;;23.25;11.53;;;;;;;4.30;81.75;100104.66;1669150;84;25751;-77
2022/02/05 09:41:27;;;;;;;17.67;8.35;;;;;;;4.31;81.86;100105.49;1671297;85;26011;-77
2022/02/05 09:43:55;;;;;;;18.62;8.95;;;;;;;4.31;82.01;100104.17;1670575;84;27430;-76
2022/02/05 09:46:22;;;;;;;18.80;8.43;;;;;;;4.35;82.64;100110.81;1635755;86;25828;-77
2022/02/05 09:48:51;;;;;;;21.15;9.20;;;;;;;4.38;82.59;100109.17;1616571;87;25890;-76
2022/02/05 09:51:24;;;;;;;20.72;7.92;;;;;;;4.40;82.15;100112.50;1682003;83;25784;-77
2022/02/05 09:53:54;;;;;;;34.10;14.07;;;;;;;4.43;82.19;100110.84;1681571;84;26521;-76
2022/02/05 09:56:23;;;;;;;16.67;7.10;;;;;;;4.45;82.40;100111.51;1685517;84;28558;-78
2022/02/05 09:58:49;;;;;;;9.60;4.78;;;;;;;4.46;82.65;100118.48;1683115;84;25825;-77
2022/02/05 10:01:28;;;;;;;9.18;4.15;;;;;;;4.44;82.98;100120.47;1683249;84;25776;-77
2022/02/05 10:03:54;;;;;;;4.83;3.17;;;;;;;4.40;83.17;100124.44;1684907;84;26468;-77
2022/02/05 10:06:29;;;;;;;12.55;4.30;;;;;;;4.38;83.73;100126.41;1681586;84;26448;-77
2022/02/05 10:09:10;;;;;;;12.95;5.15;;;;;;;4.37;84.16;100128.72;1683346;84;28284;-77
2022/02/05 10:11:56;;;;;;;;;;;;;;;4.39;84.50;100129.38;1688594;84;25813;-76
2022/02/05 10:14:29;;;;;;;11.18;5.22;;;;;;;4.39;84.78;100135.53;1685249;84;26450;-76
2022/02/05 10:17:00;;;;;;;12.93;5.10;;;;;;;4.37;84.61;100138.00;1684449;84;25843;-77
2022/02/05 10:19:51;;;;;;;13.15;5.65;;;;;;;4.38;85.00;100139.67;1682829;84;26402;-77
2022/02/05 10:22:22;;;;;;;15.80;3.83;;;;;;;4.39;85.09;100138.17;1656557;85;27481;-76
2022/02/05 10:24:55;;;;;;;17.10;8.25;;;;;;;4.43;84.52;100142.66;1657020;85;25818;-76
2022/02/05 10:27:28;;;;;;;11.40;5.53;;;;;;;4.44;84.93;100135.89;1655979;84;25878;-76
2022/02/05 10:30:10;;;;;;;11.30;5.80;;;;;;;4.48;84.85;100134.58;1658936;85;25751;-76
2022/02/05 10:32:42;;;;;;;21.12;12.23;;;;;;;4.53;85.13;100128.80;1639340;86;25787;-74
2022/02/05 10:35:34;;;;;;;26.27;11.73;;;;;;;4.60;84.95;100128.48;1632465;87;28366;-75
2022/02/05 10:37:45;;;;;;;18.37;10.48;;;;;;;4.67;84.72;100130.84;1649120;85;25813;-75
2022/02/05 10:40:15;;;;;;;18.77;8.05;;;;;;;4.70;84.76;100123.38;1656279;85;26264;-75
2022/02/05 10:43:05;;;;;;;20.20;9.83;;;;;;;4.73;84.52;100118.25;1651610;85;25786;-74
2022/02/05 10:45:18;;;;;;;18.77;10.35;;;;;;;4.76;84.06;100127.23;1652641;84;25906;-77
2022/02/05 10:47:56;;;;;;;22.82;13.08;;;;;;;4.81;84.26;100125.42;1657641;85;28264;-76
2022/02/05 10:50:31;;;;;;;12.13;5.45;;;;;;;4.87;84.05;100130.08;1663439;84;25837;-75
2022/02/05 10:53:06;;;;;;;19.40;11.28;;;;;;;4.91;83.91;100120.31;1677452;84;25828;-77
2022/02/05 11:05:58;;;;;;;31.52;13.70;;;;;;;5.01;82.57;100120.98;1678749;84;25835;-76
2022/02/05 11:08:24;;;;;;;27.98;13.85;;;;;;;4.98;81.69;100122.66;1677918;84;25926;-77
2022/02/05 11:13:41;;;;;;;37.42;14.23;;;;;;;4.94;82.14;100133.23;1679686;84;28262;-77
2022/02/05 11:21:02;;;;;;;16.15;7.67;;;;;;;4.97;82.21;100143.54;1655797;84;26467;-75
2022/02/05 11:23:29;;;;;;;16.00;7.65;;;;;;;5.02;82.63;100143.89;1677891;84;25819;-75
2022/02/05 11:26:00;;;;;;;18.45;9.35;;;;;;;5.06;82.28;100143.91;1669889;84;27400;-75
2022/02/05 11:28:50;;;;;;;38.67;16.50;;;;;;;5.11;81.86;100145.55;1670528;84;25859;-75
2022/02/05 11:31:30;;;;;;;22.15;12.58;;;;;;;5.09;81.15;100141.42;1679069;84;25715;-75
2022/02/05 11:33:55;;;;;;;21.62;13.35;;;;;;;5.07;81.29;100147.39;1676102;84;26546;-75
2022/02/05 11:36:40;;;;;;;16.17;9.25;;;;;;;5.06;80.95;100139.92;1677711;84;26302;-75
2022/02/05 11:39:09;;;;;;;18.15;8.38;;;;;;;5.06;81.33;100146.55;1675515;84;27608;-75
2022/02/05 11:41:37;;;;;;;15.13;8.68;;;;;;;5.05;80.59;100142.22;1677816;84;26626;-75
2022/02/05 11:44:25;;;;;;;31.02;15.70;;;;;;;5.03;81.00;100142.89;1679840;84;25696;-75
2022/02/05 11:47:11;;;;;;;28.57;12.20;;;;;;;5.04;81.07;100134.43;1678439;84;26516;-75
2022/02/05 11:49:58;;;;;;;16.27;9.13;;;;;;;5.03;81.06;100136.73;1679067;84;26158;-75
2022/02/05 11:52:45;;;;;;;22.75;10.53;;;;;;;5.01;80.45;100136.91;1679946;84;27493;-75
2022/02/05 11:55:38;;;;;;;37.53;21.65;;;;;;;4.99;80.67;100140.22;1678646;84;25783;-75
2022/02/05 11:58:08;;;;;;;29.20;15.45;;;;;;;5.01;81.00;100140.05;1679073;84;25901;-75
2022/02/05 12:00:44;;;;;;;17.90;10.82;;;;;;;5.01;81.01;100144.03;1678232;84;26452;-78
2022/02/05 12:03:34;;;;;;;11.65;6.83;;;;;;;4.94;81.14;100141.20;1675799;84;25870;-78
2022/02/05 12:06:07;;;;;;;7.97;4.30;;;;;;;4.87;80.73;100146.00;1679176;84;27523;-78
2022/02/05 12:08:39;;;;;;;12.98;7.25;;;;;;;4.72;81.06;100145.79;1679599;83;25779;-79
2022/02/05 12:11:30;;;;;;;24.90;13.03;;;;;;;4.63;81.70;100148.06;1658400;84;26414;-76
2022/02/05 12:14:16;;;;;;;17.15;8.63;;;;;;;4.61;82.01;100144.74;1677722;84;25770;-79
2022/02/05 12:17:16;;;;;;;13.20;5.85;;;;;;;4.61;82.55;100155.36;1679587;84;26103;-79
2022/02/05 12:20:04;;;;;;;11.45;4.95;;;;;;;4.66;82.34;100154.39;1676888;83;27496;-78
2022/02/05 12:26:10;;;;;;;23.50;12.68;;;;;;;4.72;82.84;100156.89;1679234;84;26146;-77
2022/02/05 12:28:42;;;;;;;24.77;13.58;;;;;;;4.75;82.82;100148.63;1675340;83;25863;-77
2022/02/05 12:31:25;;;;;;;24.85;12.98;;;;;;;4.78;83.10;100166.36;1681646;84;25734;-76
2022/02/05 12:34:10;;;;;;;14.10;8.13;;;;;;;4.83;83.15;100165.89;1676381;84;28053;-76
2022/02/05 12:36:46;;;;;;;12.85;6.60;;;;;;;4.85;83.20;100162.58;1676580;84;25864;-77
2022/02/05 12:39:20;;;;;;;15.15;7.25;;;;;;;4.89;83.18;100166.56;1678209;84;25975;-77
2022/02/05 12:41:55;;;;;;;11.50;6.65;;;;;;;4.89;82.82;100163.91;1673416;84;26603;-77
2022/02/05 12:44:26;;;;;;;11.08;5.65;;;;;;;4.91;83.18;100170.73;1679537;84;25888;-76
2022/02/05 12:47:05;;;;;;;13.78;5.75;;;;;;;4.96;83.49;100164.42;1673253;84;27439;-75
2022/02/05 12:49:43;;;;;;;12.55;5.60;;;;;;;4.97;82.86;100178.53;1673128;84;25816;-77
2022/02/05 12:54:48;;;;;;;12.73;5.15;;;;;;;5.04;82.73;100180.88;1771342;79;25616;-76
2022/02/05 12:57:17;;;;;;;9.00;5.47;;;;;;;5.02;82.57;100174.42;1743151;81;26488;-75
2022/02/05 12:59:45;;;;;;;10.30;4.70;;;;;;;5.05;82.60;100174.56;1715168;83;28494;-76
2022/02/05 13:02:14;;;;;;;15.30;8.13;;;;;;;5.09;82.08;100187.88;1715368;83;25760;-75
2022/02/05 13:04:44;;;;;;;8.50;4.92;;;;;;;5.10;82.25;100185.55;1713223;83;25834;-75
2022/02/05 13:07:18;;;;;;;10.08;6.40;;;;;;;5.08;81.94;100185.71;1712016;83;25775;-73
2022/02/05 13:10:04;;;;;;;11.35;7.25;;;;;;;5.10;82.04;100198.81;1715158;83;25814;-74
2022/02/05 13:12:40;;;;;;;12.00;6.37;;;;;;;5.11;81.64;100192.53;1706406;83;27543;-74
2022/02/05 13:15:25;;;;;;;14.80;7.95;;;;;;;5.08;81.53;100200.80;1704891;83;26470;-73
2022/02/05 13:26:17;;;;;;;35.23;17.80;;;;;;;5.08;80.79;100196.33;1708696;83;27452;-73
2022/02/05 13:29:14;;;;;;;42.60;21.55;;;;;;;5.07;81.84;100202.62;1685750;83;26109;-74
2022/02/05 13:34:13;;;;;;;13.53;7.60;;;;;;;5.06;80.86;100206.77;1672118;84;25934;-74
2022/02/05 13:37:02;;;;;;;10.10;5.50;;;;;;;5.00;80.56;100207.42;1666703;83;25879;-75
2022/02/05 13:39:41;;;;;;;8.38;4.65;;;;;;;4.85;81.71;100200.56;1671511;84;27484;-74
2022/02/05 13:42:03;;;;;;;10.60;5.33;;;;;;;4.61;82.29;100215.88;1667890;84;26428;-74
2022/02/05 13:45:11;;;;;;;24.65;10.90;;;;;;;4.50;83.06;100229.89;1670389;84;26427;-74
2022/02/05 13:47:39;;;;;;;14.15;7.22;;;;;;;4.46;83.46;100228.05;1675243;84;26005;-74
2022/02/05 13:50:15;;;;;;;19.73;9.40;;;;;;;4.36;83.47;100218.02;1668704;84;26462;-74
2022/02/05 13:52:48;;;;;;;12.28;6.35;;;;;;;4.31;84.12;100217.69;1663347;84;28276;-73
2022/02/05 13:55:30;;;;;;;8.40;4.97;;;;;;;4.32;84.56;100214.55;1665215;85;25785;-74
2022/02/05 13:58:14;;;;;;;11.50;5.90;;;;;;;4.33;84.05;100215.70;1674425;83;25920;-74
2022/02/05 14:00:52;;;;;;;15.20;9.88;;;;;;;4.36;84.30;100212.72;1668093;84;26422;-74
2022/02/05 14:03:35;;;;;;;26.52;12.05;;;;;;;4.39;84.28;100215.08;1668308;84;25838;-74
2022/02/05 14:06:16;;;;;;;12.10;6.75;;;;;;;4.40;83.71;100206.63;1665476;85;27659;-74
2022/02/05 14:08:52;;;;;;;12.88;6.12;;;;;;;4.42;83.73;100212.61;1665368;84;25876;-76
2022/02/05 14:11:33;;;;;;;11.08;5.67;;;;;;;4.45;84.12;100221.08;1664142;85;25767;-74
2022/02/05 14:14:03;;;;;;;11.40;6.97;;;;;;;4.49;83.74;100225.59;1669664;84;25760;-75
2022/02/05 14:16:38;;;;;;;11.57;6.83;;;;;;;4.49;83.61;100222.94;1665676;85;25807;-75
2022/02/05 14:19:06;;;;;;;10.85;6.45;;;;;;;4.51;83.84;100225.74;1671904;83;27491;-76
2022/02/05 14:21:44;;;;;;;10.68;6.03;;;;;;;4.55;83.95;100234.23;1676013;84;26434;-73
2022/02/05 14:24:17;;;;;;;9.00;5.35;;;;;;;4.58;83.91;100236.56;1667125;84;25548;-74
2022/02/05 14:27:03;;;;;;;16.55;7.50;;;;;;;4.58;83.79;100247.17;1664118;84;25921;-73